Time;durP1;ratioP1;P1;durP2;ratioP2;P2;SDS_P1;SDS_P2;PMS_P1;PMS_P2;Temp;Humidity;BMP_temperature;BMP_pressure;BME280_temperature;BME280_humidity;BME280_pressure;Samples;Min_cycle;Max_cycle;Signal;HPM_P1;HPM_P2
2023/01/02 00:00:51;;;;;;;6.80;3.63;;;;;;;12.25;81.83;100723.47;5063368;28;20045;-76
2023/01/02 00:03:16;;;;;;;7.68;3.13;;;;;;;12.27;81.93;100722.56;5059126;28;20162;-76
2023/01/02 00:05:41;;;;;;;7.28;3.13;;;;;;;12.34;81.70;100723.41;5063455;28;20115;-76
2023/01/02 00:08:07;;;;;;;11.05;3.75;;;;;;;12.36;81.73;100712.78;5061272;28;20449;-76
2023/01/02 00:10:32;;;;;;;5.45;2.78;;;;;;;12.37;81.59;100717.19;5062681;28;20478;-76
2023/01/02 00:12:57;;;;;;;7.47;2.90;;;;;;;12.35;81.79;100718.97;5062274;28;20072;-76
2023/01/02 00:15:24;;;;;;;10.07;2.95;;;;;;;12.33;81.97;100718.97;5061004;28;20056;-75
2023/01/02 00:17:49;;;;;;;8.73;3.42;;;;;;;12.33;81.28;100704.88;5063365;28;20036;-76
2023/01/02 00:20:14;;;;;;;7.43;3.28;;;;;;;12.32;81.49;100704.00;5060218;28;20044;-75
2023/01/02 00:22:40;;;;;;;9.15;3.17;;;;;;;12.37;81.21;100694.25;5063262;28;20044;-76
2023/01/02 00:25:06;;;;;;;8.15;3.28;;;;;;;12.44;81.41;100692.38;5061042;28;20167;-76
2023/01/02 00:27:32;;;;;;;7.60;3.53;;;;;;;12.47;80.82;100697.63;5061494;28;20521;-75
2023/01/02 00:29:58;;;;;;;8.02;3.28;;;;;;;12.49;80.69;100696.72;5060040;28;20021;-76
2023/01/02 00:32:23;;;;;;;7.65;3.40;;;;;;;12.52;80.51;100693.19;5063083;28;20539;-76
2023/01/02 00:34:48;;;;;;;6.85;3.55;;;;;;;12.55;79.98;100693.16;5059991;28;20123;-76
2023/01/02 00:37:14;;;;;;;7.22;2.90;;;;;;;12.59;79.34;100684.28;5062886;28;20044;-76
2023/01/02 00:39:40;;;;;;;11.30;3.80;;;;;;;12.60;79.02;100683.41;5060858;28;20116;-76
2023/01/02 00:42:05;;;;;;;6.05;3.10;;;;;;;12.60;79.06;100683.41;5061793;28;20160;-76
2023/01/02 00:44:30;;;;;;;5.70;2.63;;;;;;;12.54;78.73;100682.56;5061190;28;20079;-75
2023/01/02 00:46:56;;;;;;;8.95;3.30;;;;;;;12.41;79.48;100687.13;5062252;28;20502;-76
2023/01/02 00:49:21;;;;;;;8.10;3.47;;;;;;;12.34;79.86;100680.16;5058527;28;20045;-76
2023/01/02 00:51:46;;;;;;;10.93;2.92;;;;;;;12.37;79.97;100678.38;5063199;28;20036;-76
2023/01/02 00:54:12;;;;;;;8.10;3.50;;;;;;;12.42;79.42;100679.19;5062452;28;20080;-75
2023/01/02 00:56:37;;;;;;;7.43;3.35;;;;;;;12.50;79.70;100676.47;5060576;28;20075;-75
2023/01/02 00:59:02;;;;;;;8.45;3.22;;;;;;;12.56;78.95;100671.06;5060822;28;20072;-75
2023/01/02 01:01:28;;;;;;;8.20;3.35;;;;;;;12.60;78.66;100669.25;5061790;28;20052;-77
2023/01/02 01:03:53;;;;;;;11.13;2.85;;;;;;;12.68;78.41;100670.94;5060040;28;20520;-76
2023/01/02 01:06:20;;;;;;;8.70;3.75;;;;;;;12.76;77.31;100665.53;5062768;28;20059;-76
2023/01/02 01:08:46;;;;;;;7.97;2.90;;;;;;;12.84;76.84;100665.44;5059938;28;20044;-75
2023/01/02 01:11:14;;;;;;;9.07;3.72;;;;;;;12.92;76.17;100668.88;5061965;28;20040;-76
2023/01/02 01:13:40;;;;;;;9.88;3.67;;;;;;;12.96;75.96;100664.38;5060367;28;20108;-77
2023/01/02 01:16:15;;;;;;;7.75;3.13;;;;;;;12.99;75.68;100670.50;5058555;28;20142;-76
2023/01/02 01:18:40;;;;;;;9.07;3.00;;;;;;;12.99;75.62;100672.28;5056890;28;20517;-76
2023/01/02 01:21:08;;;;;;;8.75;3.45;;;;;;;12.85;76.12;100670.69;5061408;28;20124;-76
2023/01/02 01:23:33;;;;;;;8.32;3.65;;;;;;;12.90;76.02;100673.31;5061474;28;20094;-76
2023/01/02 01:26:03;;;;;;;8.73;3.83;;;;;;;12.99;75.54;100672.28;5059791;28;20521;-76
2023/01/02 01:28:28;;;;;;;6.90;3.00;;;;;;;13.01;75.26;100671.38;5055841;28;20048;-76
2023/01/02 01:30:53;;;;;;;7.28;3.10;;;;;;;13.05;75.16;100665.16;5062896;28;20032;-75
2023/01/02 01:33:19;;;;;;;12.02;3.50;;;;;;;13.03;75.22;100666.94;5061560;28;20048;-75
2023/01/02 01:35:44;;;;;;;8.02;3.55;;;;;;;13.03;75.28;100663.41;5060829;28;20041;-76
2023/01/02 01:38:09;;;;;;;7.53;3.58;;;;;;;13.04;75.50;100668.66;5060328;28;20041;-76
2023/01/02 01:40:38;;;;;;;9.48;4.10;;;;;;;13.08;75.12;100653.63;5062076;28;20067;-76
2023/01/02 01:43:12;;;;;;;8.50;3.97;;;;;;;13.08;75.19;100658.94;5055550;28;20048;-76
2023/01/02 01:45:41;;;;;;;11.90;3.92;;;;;;;13.06;75.47;100651.00;5062406;28;20045;-76
2023/01/02 01:48:11;;;;;;;11.05;4.30;;;;;;;13.04;75.38;100655.41;5059678;28;20037;-76
2023/01/02 01:50:38;;;;;;;7.30;3.38;;;;;;;12.99;75.57;100659.91;5056026;28;20033;-75
2023/01/02 01:53:14;;;;;;;7.93;3.20;;;;;;;13.01;75.52;100654.59;5059481;28;20487;-76
2023/01/02 01:55:49;;;;;;;9.43;3.40;;;;;;;12.96;75.71;100654.66;5058605;28;20067;-76
2023/01/02 01:58:22;;;;;;;8.43;3.90;;;;;;;12.95;75.92;100658.22;5056485;28;20037;-76
2023/01/02 02:00:48;;;;;;;8.10;3.60;;;;;;;12.93;75.96;100657.34;5059494;28;20044;-76
2023/01/02 02:03:17;;;;;;;9.02;4.20;;;;;;;12.92;75.92;100656.50;5062392;28;20033;-76
2023/01/02 02:05:45;;;;;;;8.77;4.10;;;;;;;12.91;76.32;100645.91;5059466;28;20119;-76
2023/01/02 02:08:31;;;;;;;9.15;4.35;;;;;;;12.92;75.89;100645.03;5059235;28;20126;-76
2023/01/02 02:10:58;;;;;;;10.20;4.32;;;;;;;12.90;76.29;100641.50;5059100;28;20111;-75
2023/01/02 02:13:24;;;;;;;8.73;3.83;;;;;;;12.89;76.43;100637.09;5064069;28;20047;-76
2023/01/02 02:16:07;;;;;;;8.45;3.55;;;;;;;12.86;76.15;100630.09;5065350;28;20036;-76
2023/01/02 02:18:53;;;;;;;10.13;3.85;;;;;;;12.84;76.54;100625.72;5062734;28;20179;-76
2023/01/02 02:21:41;;;;;;;7.43;3.40;;;;;;;12.79;77.04;100625.78;5061343;28;20041;-76
2023/01/02 02:24:34;;;;;;;10.75;4.07;;;;;;;12.74;77.52;100632.03;5060620;28;20040;-76
2023/01/02 02:27:21;;;;;;;6.60;3.50;;;;;;;12.68;77.44;100627.66;5061426;28;20483;-76
2023/01/02 02:30:10;;;;;;;11.43;4.57;;;;;;;12.62;77.63;100623.34;5061198;28;20483;-76
2023/01/02 02:33:11;;;;;;;8.63;4.20;;;;;;;12.52;78.40;100620.81;5043849;28;20127;-75
2023/01/02 02:35:48;;;;;;;7.10;3.72;;;;;;;12.45;78.38;100609.47;5056433;28;20040;-75
2023/01/02 02:38:28;;;;;;;8.60;3.90;;;;;;;12.44;78.40;100608.59;5060860;28;20040;-75
2023/01/02 02:41:34;;;;;;;7.40;3.40;;;;;;;12.43;78.41;100605.94;5062154;28;20159;-76
2023/01/02 02:44:25;;;;;;;9.60;4.30;;;;;;;12.36;78.63;100601.63;5063410;28;20090;-75
2023/01/02 02:46:56;;;;;;;8.75;3.88;;;;;;;12.33;78.71;100591.06;5062979;28;20033;-76
2023/01/02 02:49:47;;;;;;;9.98;4.15;;;;;;;12.30;79.02;100589.34;5062101;28;20111;-75
2023/01/02 02:52:31;;;;;;;10.20;4.00;;;;;;;12.31;78.52;100585.78;5058242;28;20080;-76
2023/01/02 02:55:03;;;;;;;8.32;4.18;;;;;;;12.34;79.04;100584.88;5062212;28;20777;-75
2023/01/02 02:57:30;;;;;;;8.98;3.85;;;;;;;12.36;78.71;100583.97;5059759;28;20044;-76
2023/01/02 02:59:56;;;;;;;9.23;4.07;;;;;;;12.37;79.07;100579.56;5063448;28;20037;-75
2023/01/02 03:02:21;;;;;;;11.40;4.10;;;;;;;12.36;78.90;100578.66;5064103;28;20035;-75
2023/01/02 03:04:57;;;;;;;9.27;3.95;;;;;;;12.22;79.55;100562.97;5062204;28;20117;-76
2023/01/02 03:07:36;;;;;;;11.40;4.60;;;;;;;12.19;79.85;100565.66;5061332;28;20474;-76
2023/01/02 03:10:25;;;;;;;11.88;4.03;;;;;;;12.18;79.93;100563.91;5063633;28;20032;-76
2023/01/02 03:13:17;;;;;;;9.25;3.67;;;;;;;12.17;80.15;100554.22;5065036;28;20044;-76
2023/01/02 03:16:11;;;;;;;8.30;4.13;;;;;;;12.23;79.42;100546.19;5064728;28;20097;-76
2023/01/02 03:19:01;;;;;;;7.97;3.72;;;;;;;12.24;79.56;100547.97;5058777;28;20657;-75
2023/01/02 03:21:33;;;;;;;6.53;3.13;;;;;;;12.21;79.69;100558.59;5058381;28;20033;-76
2023/01/02 03:24:03;;;;;;;7.95;3.33;;;;;;;12.20;79.84;100556.81;5062551;28;20037;-76
2023/01/02 03:26:31;;;;;;;7.30;3.42;;;;;;;12.20;79.51;100562.09;5064499;28;20029;-76
2023/01/02 03:29:02;;;;;;;22.50;13.80;;;;;;;12.16;80.06;100565.69;5061840;28;20040;-75
2023/01/02 03:31:31;;;;;;;13.38;8.10;;;;;;;12.16;79.60;100565.69;5062752;28;20029;-76
2023/01/02 03:34:13;;;;;;;8.15;4.80;;;;;;;12.15;80.04;100563.94;5064286;28;20119;-75
2023/01/02 03:36:41;;;;;;;8.07;4.07;;;;;;;12.15;80.59;100566.56;5061075;28;20040;-76
2023/01/02 03:39:14;;;;;;;10.10;4.20;;;;;;;12.16;80.20;100571.00;5060511;28;20372;-76
2023/01/02 03:41:44;;;;;;;6.97;3.53;;;;;;;12.16;80.30;100564.84;5058274;28;20040;-76
2023/01/02 03:44:12;;;;;;;7.45;3.40;;;;;;;12.19;80.24;100575.38;5062465;28;20036;-76
2023/01/02 03:46:47;;;;;;;8.10;3.92;;;;;;;12.20;80.22;100572.69;5063671;28;20032;-76
2023/01/02 03:49:28;;;;;;;7.63;3.45;;;;;;;12.25;80.43;100562.94;5058895;28;20048;-76
2023/01/02 03:51:53;;;;;;;7.68;3.70;;;;;;;12.25;80.15;100565.56;5059595;28;20044;-75
2023/01/02 03:54:19;;;;;;;7.40;3.22;;;;;;;12.28;79.95;100560.22;5063809;28;20033;-76
2023/01/02 03:57:17;;;;;;;8.65;3.42;;;;;;;12.33;80.11;100565.47;5061550;28;20120;-76
2023/01/02 04:00:00;;;;;;;9.55;4.00;;;;;;;12.34;79.98;100553.13;4977543;28;20197;-75
2023/01/02 04:02:42;;;;;;;8.52;3.53;;;;;;;12.30;80.47;100547.00;5059420;28;20120;-75
2023/01/02 04:05:42;;;;;;;10.02;3.92;;;;;;;12.23;80.35;100562.06;5056929;28;20036;-76
2023/01/02 04:08:29;;;;;;;9.73;3.50;;;;;;;12.20;80.38;100558.59;5039568;28;20060;-76
2023/01/02 04:10:57;;;;;;;6.30;3.25;;;;;;;12.16;80.71;100563.06;5059559;28;20033;-76
2023/01/02 04:13:28;;;;;;;7.22;2.97;;;;;;;12.15;80.58;100563.06;5061529;28;20559;-76
2023/01/02 04:15:54;;;;;;;7.07;3.88;;;;;;;12.14;80.69;100559.53;5063441;28;20044;-76
2023/01/02 04:18:30;;;;;;;9.75;3.88;;;;;;;12.14;80.97;100551.59;5060832;28;20052;-76
2023/01/02 04:21:00;;;;;;;7.20;3.70;;;;;;;12.13;80.97;100560.44;5061334;28;20451;-76
2023/01/02 04:23:37;;;;;;;10.93;5.28;;;;;;;12.15;81.59;100558.63;5055800;28;20056;-76
2023/01/02 04:26:14;;;;;;;9.63;4.10;;;;;;;12.13;80.90;100555.16;5061382;28;20410;-76
2023/01/02 04:28:39;;;;;;;8.93;3.72;;;;;;;12.12;81.26;100557.81;5057408;28;20044;-78
2023/01/02 04:31:12;;;;;;;7.68;4.15;;;;;;;12.10;81.51;100555.16;5084333;22;20042;-74
2023/01/02 04:33:44;;;;;;;7.97;3.75;;;;;;;12.05;81.82;100557.00;5050928;28;20045;-75
2023/01/02 04:36:10;;;;;;;9.38;3.88;;;;;;;11.94;82.46;100551.84;5029936;28;20060;-75
2023/01/02 04:38:36;;;;;;;8.88;4.35;;;;;;;11.88;82.24;100551.03;5033864;28;20037;-74
2023/01/02 04:41:03;;;;;;;8.80;3.40;;;;;;;11.85;82.44;100550.16;5051452;28;20041;-74
2023/01/02 04:43:28;;;;;;;7.65;3.20;;;;;;;11.83;82.99;100551.91;5051581;28;20044;-74
2023/01/02 04:45:53;;;;;;;7.53;3.10;;;;;;;11.81;82.71;100559.00;5051253;28;20036;-75
2023/01/02 04:48:19;;;;;;;9.40;3.53;;;;;;;11.75;82.80;100553.78;5051551;28;20467;-74
2023/01/02 04:50:44;;;;;;;7.18;3.22;;;;;;;11.75;83.46;100558.19;5051268;28;20538;-75
2023/01/02 04:53:10;;;;;;;8.40;3.60;;;;;;;11.76;83.40;100559.94;5044544;28;20505;-74
2023/01/02 04:55:36;;;;;;;8.15;3.50;;;;;;;11.76;83.67;100554.66;5050999;28;20037;-74
2023/01/02 04:58:02;;;;;;;8.98;3.17;;;;;;;11.75;83.49;100561.72;5033608;28;20045;-74
2023/01/02 05:00:28;;;;;;;9.25;3.42;;;;;;;11.69;83.29;100561.78;5051132;28;20091;-75
2023/01/02 05:02:53;;;;;;;8.77;3.55;;;;;;;11.61;83.47;100567.16;5051461;28;20396;-74
2023/01/02 05:05:18;;;;;;;5.68;3.17;;;;;;;11.58;83.56;100561.00;5047275;28;20491;-75
2023/01/02 05:07:44;;;;;;;5.68;3.05;;;;;;;11.59;83.67;100573.34;5050901;28;20041;-75
2023/01/02 05:10:09;;;;;;;6.47;3.28;;;;;;;11.60;83.84;100573.31;5033313;28;20039;-75
2023/01/02 05:12:38;;;;;;;10.23;4.03;;;;;;;11.65;83.71;100572.41;5051215;28;20045;-74
2023/01/02 05:15:05;;;;;;;9.55;4.80;;;;;;;11.67;83.43;100571.50;5051146;28;20082;-75
2023/01/02 05:17:35;;;;;;;7.53;4.30;;;;;;;11.68;83.69;100575.00;5050728;28;20522;-74
2023/01/02 05:20:00;;;;;;;7.95;3.92;;;;;;;11.68;83.35;100577.66;5050962;28;20123;-74
2023/01/02 05:25:09;;;;;;;6.30;2.58;;;;;;;11.60;83.04;100567.16;5047921;28;20581;-75
2023/01/02 05:27:35;;;;;;;5.55;2.95;;;;;;;11.56;83.52;100568.09;5050646;28;20044;-75
2023/01/02 05:30:00;;;;;;;7.05;3.28;;;;;;;11.57;83.52;100568.06;5050954;28;20039;-75
2023/01/02 05:32:26;;;;;;;7.25;3.53;;;;;;;11.59;83.29;100560.13;5050845;28;20123;-75
2023/01/02 05:34:51;;;;;;;6.90;3.42;;;;;;;11.58;83.73;100556.59;5050895;28;20045;-75
2023/01/02 05:37:17;;;;;;;7.20;3.75;;;;;;;11.59;84.02;100552.19;5050627;28;20045;-75
2023/01/02 05:39:42;;;;;;;12.35;4.10;;;;;;;11.61;83.64;100551.28;5032896;28;20151;-75
2023/01/02 05:42:07;;;;;;;6.85;2.97;;;;;;;11.63;83.75;100565.38;5050784;28;20108;-75
2023/01/02 05:44:33;;;;;;;7.20;3.03;;;;;;;11.65;83.56;100549.47;5042836;28;20037;-74
2023/01/02 05:46:58;;;;;;;9.50;3.08;;;;;;;11.60;84.09;100540.72;5054656;28;20049;-75
2023/01/02 05:49:23;;;;;;;11.32;6.35;;;;;;;11.60;83.85;100553.94;5054799;28;20032;-75
2023/01/02 05:51:49;;;;;;;15.27;9.82;;;;;;;11.59;84.39;100554.84;5054745;28;20123;-75
2023/01/02 05:54:14;;;;;;;10.82;5.03;;;;;;;11.57;84.73;100557.47;5054745;28;20047;-75
2023/01/02 05:56:40;;;;;;;10.02;3.38;;;;;;;11.55;84.72;100561.03;5054548;28;20029;-74
2023/01/02 05:59:07;;;;;;;6.05;3.33;;;;;;;11.44;84.92;100562.91;5054678;28;20055;-74
2023/01/02 06:01:32;;;;;;;6.18;3.45;;;;;;;11.39;84.84;100558.53;5054348;28;20032;-75
2023/01/02 06:03:59;;;;;;;10.15;3.55;;;;;;;11.44;85.03;100552.34;5054471;28;20557;-75
2023/01/02 06:06:44;;;;;;;8.57;3.63;;;;;;;11.49;85.53;100561.09;5054271;28;20036;-74
2023/01/02 06:09:14;;;;;;;9.63;3.00;;;;;;;11.49;84.27;100550.53;5053922;28;20053;-74
2023/01/02 06:11:40;;;;;;;6.43;3.35;;;;;;;11.50;84.06;100558.44;5050676;28;20056;-75
2023/01/02 06:14:05;;;;;;;6.68;3.10;;;;;;;11.56;83.84;100562.81;5036545;28;20041;-75
2023/01/02 06:16:31;;;;;;;8.48;3.25;;;;;;;11.59;83.93;100557.47;5053970;28;20514;-74
2023/01/02 06:18:56;;;;;;;5.85;3.05;;;;;;;11.61;83.55;100550.41;5053724;28;20056;-74
2023/01/02 06:21:22;;;;;;;7.13;3.08;;;;;;;11.62;83.29;100553.03;5053268;28;20032;-75
2023/01/02 06:23:52;;;;;;;11.35;4.85;;;;;;;11.65;84.40;100552.13;5054300;28;20133;-74
2023/01/02 06:26:18;;;;;;;11.15;4.28;;;;;;;11.74;84.02;100557.31;5050533;28;20036;-74
2023/01/02 06:28:45;;;;;;;7.15;3.72;;;;;;;11.85;83.00;100560.72;5036354;28;20087;-75
2023/01/02 06:31:12;;;;;;;7.95;3.90;;;;;;;11.94;81.83;100553.59;5053450;28;20036;-74
2023/01/02 06:33:38;;;;;;;10.90;4.13;;;;;;;12.03;81.25;100558.81;5054070;28;20041;-75
2023/01/02 06:36:14;;;;;;;8.88;3.90;;;;;;;12.11;80.89;100556.94;5053758;28;20032;-74
2023/01/02 06:38:40;;;;;;;7.13;4.00;;;;;;;12.16;80.23;100573.63;5053730;28;20059;-74
2023/01/02 06:41:07;;;;;;;10.60;4.95;;;;;;;12.17;80.06;100567.44;5048460;28;20017;-74
2023/01/02 06:43:33;;;;;;;7.88;4.20;;;;;;;12.16;79.71;100565.69;5053921;28;20099;-74
2023/01/02 06:46:00;;;;;;;10.05;4.13;;;;;;;12.17;79.36;100559.50;5049753;28;20112;-74
2023/01/02 06:48:26;;;;;;;11.20;4.22;;;;;;;12.17;79.34;100562.16;5053667;28;20499;-74
2023/01/02 06:50:51;;;;;;;8.05;4.38;;;;;;;12.18;79.22;100565.66;5053520;28;20044;-74
2023/01/02 06:53:16;;;;;;;9.07;4.88;;;;;;;12.15;78.81;100563.06;5053634;28;20044;-74
2023/01/02 06:55:52;;;;;;;8.80;5.05;;;;;;;12.14;78.41;100563.97;5052853;28;20048;-74
2023/01/02 06:58:18;;;;;;;8.70;4.20;;;;;;;12.14;78.48;100566.63;5052673;28;20130;-74
2023/01/02 07:00:43;;;;;;;9.63;4.60;;;;;;;12.13;77.85;100559.56;5053452;28;20087;-74
2023/01/02 07:03:08;;;;;;;7.97;4.75;;;;;;;12.14;78.90;100558.69;5053426;28;20072;-74
2023/01/02 07:05:34;;;;;;;7.95;3.75;;;;;;;12.10;78.65;100563.09;5053072;28;20109;-75
2023/01/02 07:07:59;;;;;;;7.88;3.60;;;;;;;12.10;78.47;100564.88;5053416;28;20098;-74
2023/01/02 07:10:24;;;;;;;8.20;3.50;;;;;;;12.07;78.50;100561.38;5052960;28;20132;-75
2023/01/02 07:12:50;;;;;;;10.27;3.60;;;;;;;11.96;78.30;100583.56;5053236;28;20080;-75
2023/01/02 07:15:15;;;;;;;10.88;4.25;;;;;;;11.82;78.85;100573.13;5053389;28;20688;-74
2023/01/02 07:17:40;;;;;;;9.60;4.20;;;;;;;11.81;79.14;100569.56;5053029;28;20449;-74
2023/01/02 07:20:06;;;;;;;12.57;3.83;;;;;;;11.91;78.65;100583.59;5053098;28;20048;-74
2023/01/02 07:22:31;;;;;;;8.95;4.20;;;;;;;11.99;78.48;100579.09;5053076;28;20036;-74
2023/01/02 07:24:56;;;;;;;9.35;3.65;;;;;;;12.07;78.21;100587.81;5035143;28;20033;-75
2023/01/02 07:27:22;;;;;;;7.90;4.13;;;;;;;12.11;78.20;100577.25;5052713;28;20041;-74
2023/01/02 07:29:47;;;;;;;7.32;3.97;;;;;;;12.14;78.36;100564.84;5052925;28;20099;-74
2023/01/02 07:32:12;;;;;;;7.57;3.50;;;;;;;12.16;78.44;100568.34;5052762;28;20037;-75
2023/01/02 07:34:38;;;;;;;9.25;3.90;;;;;;;12.16;78.28;100564.84;5052939;28;20036;-75
2023/01/02 07:37:04;;;;;;;7.13;3.80;;;;;;;12.15;78.15;100581.59;5052345;28;20036;-75
2023/01/02 07:39:29;;;;;;;15.70;3.30;;;;;;;12.05;78.62;100591.38;5052646;28;20037;-74
2023/01/02 07:41:54;;;;;;;9.10;3.65;;;;;;;11.97;79.04;100593.25;5052817;28;20059;-74
2023/01/02 07:44:19;;;;;;;6.85;3.30;;;;;;;11.96;78.96;100599.44;5052742;28;20443;-75
2023/01/02 07:46:46;;;;;;;6.78;3.40;;;;;;;11.99;78.83;100599.41;5034622;28;20062;-75
2023/01/02 07:49:12;;;;;;;9.43;3.35;;;;;;;12.02;79.33;100602.88;5052545;28;20641;-75
2023/01/02 07:51:37;;;;;;;6.32;3.20;;;;;;;12.06;79.00;100606.38;5052528;28;20112;-74
2023/01/02 07:54:03;;;;;;;8.10;3.78;;;;;;;12.05;78.74;100604.59;5052403;28;20178;-74
2023/01/02 07:56:28;;;;;;;6.80;3.90;;;;;;;12.02;79.31;100596.72;5052210;28;20048;-75
2023/01/02 07:58:53;;;;;;;7.70;3.63;;;;;;;12.01;79.04;100593.19;5052438;28;20080;-74
2023/01/02 08:01:19;;;;;;;6.00;3.13;;;;;;;11.97;79.45;100595.88;5050612;28;20064;-74
2023/01/02 08:03:44;;;;;;;9.00;3.50;;;;;;;11.99;79.82;100599.41;5052320;28;20047;-74
2023/01/02 08:06:16;;;;;;;7.07;3.35;;;;;;;12.04;79.61;100597.56;5052112;28;20491;-75
2023/01/02 08:08:42;;;;;;;10.45;4.45;;;;;;;12.09;79.56;100608.13;5051551;28;20051;-75
2023/01/02 08:11:14;;;;;;;10.55;4.28;;;;;;;12.08;79.22;100620.47;5051871;28;20028;-75
2023/01/02 08:13:39;;;;;;;9.35;4.00;;;;;;;12.06;79.60;100623.13;5052170;28;20044;-75
2023/01/02 08:16:07;;;;;;;7.57;3.78;;;;;;;12.10;79.43;100623.09;5051814;28;20045;-74
2023/01/02 08:18:33;;;;;;;12.20;5.22;;;;;;;12.02;80.21;100621.38;5026791;28;20036;-75
2023/01/02 08:20:58;;;;;;;12.52;6.07;;;;;;;12.00;82.30;100622.34;5051693;28;20040;-74
2023/01/02 08:23:24;;;;;;;11.05;5.35;;;;;;;12.02;80.90;100624.03;5051928;28;20041;-75
2023/01/02 08:25:49;;;;;;;10.75;5.35;;;;;;;12.09;80.17;100632.78;5051665;28;20052;-75
2023/01/02 08:28:14;;;;;;;6.20;3.33;;;;;;;12.10;79.74;100636.31;5051939;28;20040;-75
2023/01/02 08:30:40;;;;;;;9.60;3.70;;;;;;;12.02;79.87;100637.25;5051458;28;20038;-74
2023/01/02 08:33:06;;;;;;;6.55;2.90;;;;;;;12.02;80.00;100636.38;5051525;28;20036;-74
2023/01/02 08:35:31;;;;;;;6.63;2.78;;;;;;;12.06;79.94;100646.06;5051309;28;20036;-74
2023/01/02 08:37:56;;;;;;;6.43;2.92;;;;;;;12.06;80.08;100639.00;5051159;28;20403;-74
2023/01/02 08:40:22;;;;;;;7.53;2.67;;;;;;;12.10;79.84;100642.47;5051490;28;20108;-74
2023/01/02 08:42:47;;;;;;;7.57;3.45;;;;;;;12.10;79.56;100647.75;5051541;28;20179;-74
2023/01/02 08:45:12;;;;;;;8.00;2.58;;;;;;;12.14;79.23;100646.84;5051560;28;20051;-75
2023/01/02 08:47:38;;;;;;;5.63;2.63;;;;;;;12.23;78.63;100644.09;5051318;28;20029;-75
2023/01/02 08:50:04;;;;;;;6.05;2.72;;;;;;;12.37;78.30;100648.38;5051412;28;20025;-75
2023/01/02 08:52:29;;;;;;;7.60;2.65;;;;;;;12.49;77.55;100645.56;5051146;28;20044;-75
2023/01/02 08:54:55;;;;;;;7.10;3.13;;;;;;;12.61;77.13;100641.91;5051414;28;20071;-75
2023/01/02 08:57:20;;;;;;;7.30;2.80;;;;;;;12.70;76.89;100644.41;5051108;28;20033;-75
2023/01/02 08:59:45;;;;;;;7.07;2.78;;;;;;;12.74;76.48;100643.50;5051023;28;20418;-75
2023/01/02 09:02:13;;;;;;;5.18;2.50;;;;;;;12.84;76.34;100638.97;5051144;28;20477;-74
2023/01/02 09:04:39;;;;;;;9.10;2.75;;;;;;;12.87;75.66;100639.78;5051187;28;20040;-75
2023/01/02 09:07:04;;;;;;;6.47;2.92;;;;;;;12.92;76.19;100634.44;5047159;28;20048;-74
2023/01/02 09:09:30;;;;;;;6.80;2.78;;;;;;;12.93;76.41;100636.16;5051096;28;20598;-75
2023/01/02 09:11:56;;;;;;;8.05;3.20;;;;;;;13.02;75.97;100644.00;5050951;28;20080;-75
2023/01/02 09:14:21;;;;;;;7.32;2.35;;;;;;;13.11;75.61;100641.19;5051232;28;20083;-75
2023/01/02 09:16:48;;;;;;;5.50;2.17;;;;;;;13.20;75.30;100641.94;5050822;28;20041;-75
2023/01/02 09:19:14;;;;;;;6.35;2.20;;;;;;;13.25;75.11;100653.38;5050576;28;20041;-74
2023/01/02 09:21:39;;;;;;;6.47;2.47;;;;;;;13.30;74.92;100651.56;5050871;28;20033;-75
2023/01/02 09:24:05;;;;;;;8.15;2.70;;;;;;;13.31;74.74;100642.72;5051136;28;20094;-74
2023/01/02 09:26:30;;;;;;;6.82;2.75;;;;;;;13.32;74.43;100637.38;5050700;28;20079;-74
2023/01/02 09:28:57;;;;;;;6.47;2.90;;;;;;;13.37;74.71;100630.22;5051024;28;20076;-75
2023/01/02 09:31:22;;;;;;;7.18;2.33;;;;;;;13.37;73.88;100637.31;5050260;28;20090;-75
2023/01/02 09:33:48;;;;;;;6.10;2.60;;;;;;;13.38;73.87;100639.06;5033160;28;20037;-75
2023/01/02 09:36:16;;;;;;;9.10;2.63;;;;;;;13.45;73.44;100632.75;5050644;28;20045;-75
2023/01/02 09:38:41;;;;;;;6.57;2.22;;;;;;;13.51;73.52;100630.00;5050930;28;20071;-75
2023/01/02 09:41:27;;;;;;;6.38;1.85;;;;;;;13.59;73.25;100636.03;5050817;28;20068;-74
2023/01/02 09:44:01;;;;;;;7.53;2.40;;;;;;;13.65;73.18;100634.19;5048023;28;20033;-74
2023/01/02 09:46:39;;;;;;;5.13;2.38;;;;;;;13.71;72.68;100639.41;5050653;28;20111;-75
2023/01/02 09:49:06;;;;;;;5.38;2.42;;;;;;;13.73;72.70;100641.13;5048577;28;20473;-74
2023/01/02 09:51:33;;;;;;;5.43;2.15;;;;;;;13.73;72.42;100648.22;5050700;28;20402;-75
2023/01/02 09:53:59;;;;;;;10.23;2.30;;;;;;;13.76;72.58;100634.91;5050715;28;20037;-75
2023/01/02 09:56:33;;;;;;;6.25;2.33;;;;;;;13.79;72.16;100637.50;5050372;28;20040;-75
2023/01/02 09:59:22;;;;;;;6.85;2.70;;;;;;;13.80;71.86;100650.72;5050520;28;20036;-75
2023/01/02 10:01:58;;;;;;;9.98;2.67;;;;;;;13.87;71.70;100648.84;5050676;28;20076;-75
2023/01/02 10:04:35;;;;;;;7.43;2.40;;;;;;;13.91;71.59;100647.91;5050688;28;20032;-74
2023/01/02 10:07:24;;;;;;;6.18;2.53;;;;;;;13.95;71.52;100633.66;5050425;28;20037;-75
2023/01/02 10:10:09;;;;;;;6.07;2.97;;;;;;;14.05;71.37;100629.06;5032675;28;20029;-75
2023/01/02 10:12:46;;;;;;;6.88;3.00;;;;;;;14.13;70.92;100626.25;5047645;28;20040;-75
2023/01/02 10:15:23;;;;;;;5.75;2.22;;;;;;;14.22;70.85;100624.28;5048486;28;20174;-75
2023/01/02 10:17:53;;;;;;;5.47;2.30;;;;;;;14.24;71.05;100616.28;5050624;28;20407;-74
2023/01/02 10:20:27;;;;;;;10.48;3.55;;;;;;;14.20;69.97;100615.50;5032633;28;20037;-74
2023/01/02 10:22:59;;;;;;;7.80;2.72;;;;;;;14.15;70.19;100619.16;5047080;28;20037;-74
2023/01/02 10:25:44;;;;;;;;;;;;;;;14.17;70.44;100617.31;5050782;28;20060;-75
2023/01/02 10:28:20;;;;;;;6.22;2.42;;;;;;;14.16;69.80;100615.56;5047520;28;20003;-75
2023/01/02 10:30:53;;;;;;;6.60;2.83;;;;;;;14.20;70.16;100612.84;5050038;28;20399;-75
2023/01/02 10:33:45;;;;;;;5.97;2.92;;;;;;;14.26;70.32;100622.47;5035977;28;20037;-75
2023/01/02 10:36:22;;;;;;;6.55;2.67;;;;;;;14.31;69.54;100615.28;5051615;28;20041;-75
2023/01/02 10:38:47;;;;;;;9.98;2.80;;;;;;;14.31;69.60;100602.00;5036162;28;20037;-75
2023/01/02 10:41:12;;;;;;;7.25;2.88;;;;;;;14.37;69.88;100604.53;5053797;28;20376;-74
2023/01/02 10:43:38;;;;;;;6.35;3.03;;;;;;;14.43;69.63;100601.72;5053887;28;20029;-75
2023/01/02 10:46:03;;;;;;;7.63;2.20;;;;;;;14.50;69.31;100594.53;5053543;28;20041;-75
2023/01/02 10:48:34;;;;;;;7.00;2.50;;;;;;;14.61;69.22;100591.66;5053712;28;20703;-75
2023/01/02 10:51:03;;;;;;;8.52;3.38;;;;;;;14.64;68.95;100587.16;5053339;28;20029;-75
2023/01/02 10:53:35;;;;;;;6.38;3.22;;;;;;;14.59;67.83;100583.75;5053599;28;20037;-75
2023/01/02 10:56:19;;;;;;;9.55;3.05;;;;;;;14.51;68.70;100574.16;5080592;23;20547;-77
2023/01/02 10:58:47;;;;;;;6.00;3.10;;;;;;;14.55;68.36;100586.50;5070059;28;20044;-77
2023/01/02 11:01:17;;;;;;;8.98;3.58;;;;;;;14.53;68.04;100578.56;5072734;28;20039;-77
2023/01/02 11:03:44;;;;;;;5.88;3.13;;;;;;;14.57;68.30;100577.59;5080497;28;20392;-77
2023/01/02 11:06:24;;;;;;;5.97;2.65;;;;;;;14.65;67.97;100586.25;5068907;28;20464;-77
2023/01/02 11:09:00;;;;;;;6.03;2.92;;;;;;;14.65;67.61;100580.09;5064667;28;20119;-77
2023/01/02 11:11:28;;;;;;;5.97;2.75;;;;;;;14.60;68.11;100579.31;5044465;28;20078;-77
2023/01/02 11:13:55;;;;;;;11.02;2.90;;;;;;;14.61;67.22;100575.72;5063655;28;20033;-77
2023/01/02 11:16:23;;;;;;;6.47;2.75;;;;;;;14.69;67.77;100579.09;5064434;28;20102;-77
2023/01/02 11:18:52;;;;;;;9.13;3.47;;;;;;;14.70;67.92;100588.81;5058206;28;20040;-77
2023/01/02 11:21:30;;;;;;;11.70;3.40;;;;;;;14.67;67.85;100580.91;5063248;28;20059;-77
2023/01/02 11:23:59;;;;;;;6.93;2.65;;;;;;;14.67;67.75;100584.44;5064757;28;20495;-77
2023/01/02 11:26:26;;;;;;;5.03;2.55;;;;;;;14.63;67.08;100584.53;5061941;28;20118;-77
2023/01/02 11:28:54;;;;;;;11.05;2.47;;;;;;;14.68;67.10;100580.00;5062895;28;20083;-77
2023/01/02 11:31:20;;;;;;;7.75;2.42;;;;;;;14.65;67.15;100590.72;5063746;28;20068;-77
2023/01/02 11:33:46;;;;;;;6.95;2.83;;;;;;;14.65;67.21;100586.25;5061326;28;20384;-77
2023/01/02 11:36:11;;;;;;;8.57;3.33;;;;;;;14.62;67.06;100583.69;5057065;28;20090;-77
2023/01/02 11:38:52;;;;;;;9.07;2.95;;;;;;;14.66;67.00;100582.69;5064461;28;20115;-77